WAT5913 LYTV-OMDB
Flight info
| Callsign | WAT5913 |
|---|---|
| Flight time | N/A |
| Altitude | 33000 |
| Route | LASTI DCT RETRA DCT VELBA P127 PDV N739 ADORU UA4 TIRER UN644 BKZ UL333 BAG/N0448F350 UG8 GEM UT32 DYB UP975 LESRI P975 ULDUR M688 SIDAD R784 IMDAT B416 DURSI N570 LVA B547 KIS L223 SIR DCT DATOB |
| Aircraft | A321/M-SDE3FGHIRWY/LB1 |
Departure
| Time | 2026-05-08 18:15 |
|---|---|
| Airport | Tivat Airport (LYTV) |
Arrival
| Time | N/A |
|---|---|
| Airport | Dubai International Airport (OMDB) |
| Time | Latitude | Longitude | Altitude | Speed | Heading |
|---|---|---|---|---|---|
| 2026-05-08 17:56 | 42.41206 | 18.71695 | 22 ft | 0 kts | 165° |
| 2026-05-08 18:10 | 42.41193 | 18.71699 | 23 ft | 9 kts | 165° |
| 2026-05-08 18:11 | 42.41184 | 18.71702 | 23 ft | 10 kts | 165° |
| 2026-05-08 18:11 | 42.41117 | 18.71745 | 23 ft | 11 kts | 144° |
| 2026-05-08 18:11 | 42.41036 | 18.71837 | 25 ft | 17 kts | 140° |
| 2026-05-08 18:11 | 42.40980 | 18.71828 | 24 ft | 9 kts | 216° |
| 2026-05-08 18:12 | 42.40888 | 18.71827 | 24 ft | 19 kts | 137° |
| 2026-05-08 18:12 | 42.40816 | 18.71914 | 26 ft | 18 kts | 140° |
| 2026-05-08 18:12 | 42.40722 | 18.72023 | 27 ft | 18 kts | 140° |
| 2026-05-08 18:12 | 42.40620 | 18.72138 | 27 ft | 20 kts | 139° |
| 2026-05-08 18:13 | 42.40504 | 18.72277 | 27 ft | 22 kts | 139° |
| 2026-05-08 18:13 | 42.39788 | 18.73119 | 25 ft | 21 kts | 139° |
| 2026-05-08 18:13 | 42.39682 | 18.73234 | 28 ft | 13 kts | 155° |
| 2026-05-08 18:13 | 42.39623 | 18.73265 | 28 ft | 7 kts | 118° |
| 2026-05-08 18:14 | 42.39646 | 18.73282 | 28 ft | 4 kts | 347° |
| 2026-05-08 18:14 | 42.39677 | 18.73252 | 28 ft | 6 kts | 322° |
| 2026-05-08 18:14 | 42.39785 | 18.73134 | 26 ft | 49 kts | 315° |
| 2026-05-08 18:14 | 42.40226 | 18.72611 | 26 ft | 117 kts | 319° |
| 2026-05-08 18:15 | 42.40991 | 18.71710 | 25 ft | 173 kts | 319° |
| 2026-05-08 18:15 | 42.41921 | 18.70614 | 533 ft | 180 kts | 319° |
| 2026-05-08 18:15 | 42.42687 | 18.69297 | 1155 ft | 185 kts | 287° |
| 2026-05-08 18:15 | 42.42559 | 18.67622 | 1758 ft | 185 kts | 240° |
| 2026-05-08 18:16 | 42.41597 | 18.66458 | 2028 ft | 193 kts | 211° |
| 2026-05-08 18:16 | 42.40397 | 18.65539 | 2259 ft | 204 kts | 210° |
| 2026-05-08 18:16 | 42.39158 | 18.64528 | 2571 ft | 211 kts | 213° |
| 2026-05-08 18:16 | 42.37903 | 18.63402 | 2838 ft | 223 kts | 215° |
| 2026-05-08 18:17 | 42.36600 | 18.62160 | 3045 ft | 238 kts | 216° |
| 2026-05-08 18:17 | 42.35222 | 18.60809 | 3383 ft | 249 kts | 216° |